createdAt,value
2023-09-21T00:00:32.969Z,13.87
2023-09-21T00:03:17.556Z,13.83
2023-09-21T00:05:59.421Z,13.81
2023-09-21T00:08:39.539Z,13.81
2023-09-21T00:11:19.138Z,13.81
2023-09-21T00:13:58.463Z,13.81
2023-09-21T00:16:37.868Z,13.82
2023-09-21T00:19:25.320Z,13.85
2023-09-21T00:22:05.087Z,13.85
2023-09-21T00:24:44.591Z,13.84
2023-09-21T00:27:24.275Z,13.79
2023-09-21T00:30:04.592Z,13.77
2023-09-21T00:32:45.732Z,13.73
2023-09-21T00:35:31.625Z,13.67
2023-09-21T00:38:11.732Z,13.58
2023-09-21T00:40:51.100Z,13.56
2023-09-21T00:43:31.458Z,13.50
2023-09-21T00:46:11.906Z,13.46
2023-09-21T00:48:52.537Z,13.46
2023-09-21T00:51:37.144Z,13.49
2023-09-21T00:54:17.702Z,13.43
2023-09-21T00:56:58.865Z,13.41
2023-09-21T00:59:41.628Z,13.40
2023-09-21T01:02:24.657Z,13.38
2023-09-21T01:05:08.218Z,13.35
2023-09-21T01:07:53.529Z,13.33
2023-09-21T01:10:33.240Z,13.33
2023-09-21T01:13:13.869Z,13.30
2023-09-21T01:15:54.226Z,13.29
2023-09-21T01:18:33.987Z,13.28
2023-09-21T01:21:17.514Z,13.25
2023-09-21T01:24:02.133Z,13.17
2023-09-21T01:26:42.438Z,13.11
2023-09-21T01:29:22.002Z,13.11
2023-09-21T01:32:01.867Z,13.10
2023-09-21T01:34:41.230Z,13.10
2023-09-21T01:37:21.284Z,13.09
2023-09-21T01:40:12.161Z,13.09
2023-09-21T01:42:52.565Z,13.10
2023-09-21T01:45:31.991Z,13.12
2023-09-21T01:48:12.988Z,13.12
2023-09-21T01:50:55.060Z,13.09
2023-09-21T01:53:35.115Z,12.96
2023-09-21T01:56:19.682Z,12.91
2023-09-21T01:59:00.492Z,12.88
2023-09-21T02:01:39.875Z,12.82
2023-09-21T02:04:19.314Z,12.81
2023-09-21T02:06:58.732Z,12.82
2023-09-21T02:09:38.777Z,12.86
2023-09-21T02:12:23.169Z,12.88
2023-09-21T02:15:02.856Z,12.89
2023-09-21T02:17:43.463Z,12.91
2023-09-21T02:20:23.781Z,12.93
2023-09-21T02:23:05.000Z,12.93
2023-09-21T02:25:45.050Z,12.96
2023-09-21T02:28:29.553Z,13.00
2023-09-21T02:31:14.585Z,13.01
2023-09-21T02:33:54.297Z,13.09
2023-09-21T02:36:34.040Z,13.13
2023-09-21T02:39:14.415Z,13.13
2023-09-21T02:41:53.810Z,13.15
2023-09-21T02:44:38.221Z,13.18
2023-09-21T02:47:17.555Z,13.19
2023-09-21T02:49:57.274Z,13.20
2023-09-21T02:52:38.440Z,13.21
2023-09-21T02:55:19.007Z,13.24
2023-09-21T02:58:07.234Z,13.28
2023-09-21T03:00:53.129Z,13.34
2023-09-21T03:03:33.129Z,13.40
2023-09-21T03:06:14.942Z,13.47
2023-09-21T03:08:54.325Z,13.52
2023-09-21T03:11:33.671Z,13.45
2023-09-21T03:14:13.013Z,13.42
2023-09-21T03:16:57.484Z,13.44
2023-09-21T03:19:37.590Z,13.45
2023-09-21T03:22:16.903Z,13.44
2023-09-21T03:24:59.480Z,13.46
2023-09-21T03:27:38.800Z,13.53
2023-09-21T03:30:20.191Z,13.56
2023-09-21T03:33:05.218Z,13.58
2023-09-21T03:35:44.971Z,13.58
2023-09-21T03:38:25.410Z,13.52
2023-09-21T03:41:05.880Z,13.55
2023-09-21T03:43:45.972Z,13.51
2023-09-21T03:46:25.572Z,13.48
2023-09-21T03:49:12.437Z,13.51
2023-09-21T03:51:53.424Z,13.51
2023-09-21T03:54:32.749Z,13.48
2023-09-21T03:57:13.515Z,13.44
2023-09-21T03:59:53.133Z,13.46
2023-09-21T04:02:32.670Z,13.47
2023-09-21T04:05:22.834Z,13.48
2023-09-21T04:08:02.126Z,13.48
2023-09-21T04:10:42.913Z,13.51
2023-09-21T04:13:22.175Z,13.54
2023-09-21T04:16:01.513Z,13.52
2023-09-21T04:18:41.349Z,13.56
2023-09-21T04:21:26.101Z,13.56
2023-09-21T04:24:05.561Z,13.57
2023-09-21T04:26:44.992Z,13.61
2023-09-21T04:29:27.194Z,13.63
2023-09-21T04:32:06.742Z,13.70
2023-09-21T04:34:46.129Z,13.79
2023-09-21T04:37:30.487Z,13.87
2023-09-21T04:40:14.854Z,13.92
2023-09-21T04:42:56.455Z,13.93
2023-09-21T04:45:37.320Z,13.92
2023-09-21T04:48:16.719Z,13.85
2023-09-21T04:50:56.170Z,13.82
2023-09-21T04:53:41.004Z,13.84
2023-09-21T04:56:20.324Z,13.85
2023-09-21T04:58:59.661Z,13.89
2023-09-21T05:01:38.957Z,13.92
2023-09-21T05:04:18.687Z,13.96
2023-09-21T05:06:58.379Z,13.94
2023-09-21T05:09:42.797Z,13.91
2023-09-21T05:12:22.860Z,13.88
2023-09-21T05:15:02.306Z,13.87
2023-09-21T05:17:42.540Z,13.83
2023-09-21T05:20:22.172Z,13.86
2023-09-21T05:23:01.484Z,13.89
2023-09-21T05:25:46.766Z,13.92
2023-09-21T05:28:26.092Z,14.02
2023-09-21T05:31:05.402Z,14.09
2023-09-21T05:33:44.961Z,14.20
2023-09-21T05:36:24.745Z,14.23
2023-09-21T05:39:04.089Z,14.27
2023-09-21T05:41:48.970Z,14.24
2023-09-21T05:44:30.616Z,14.22
2023-09-21T05:47:10.064Z,14.21
2023-09-21T05:49:49.588Z,14.23
2023-09-21T05:52:29.197Z,14.17
2023-09-21T05:55:08.530Z,14.11
2023-09-21T05:57:53.686Z,14.07
2023-09-21T06:00:33.035Z,14.06
2023-09-21T06:03:12.705Z,14.08
2023-09-21T06:05:52.297Z,14.14
2023-09-21T06:08:32.024Z,14.19
2023-09-21T06:11:11.505Z,14.32
2023-09-21T06:13:56.220Z,14.39
2023-09-21T06:16:35.547Z,14.44
2023-09-21T06:19:16.453Z,14.48
2023-09-21T06:21:59.532Z,14.50
2023-09-21T06:24:40.313Z,14.50
2023-09-21T06:27:21.217Z,14.50
2023-09-21T06:30:06.490Z,14.48
2023-09-21T06:32:48.420Z,14.50
2023-09-21T06:35:28.283Z,14.53
2023-09-21T06:38:08.008Z,14.55
2023-09-21T06:40:47.318Z,14.61
2023-09-21T06:43:30.062Z,14.65
2023-09-21T06:46:14.761Z,14.69
2023-09-21T06:48:56.921Z,14.69
2023-09-21T06:51:38.004Z,14.72
2023-09-21T06:54:17.377Z,14.77
2023-09-21T06:56:57.097Z,14.83
2023-09-21T06:59:36.976Z,14.83
2023-09-21T07:02:22.049Z,14.86
2023-09-21T07:05:01.989Z,14.92
2023-09-21T07:07:41.373Z,14.94
2023-09-21T07:10:20.857Z,14.98
2023-09-21T07:13:00.629Z,14.99
2023-09-21T07:15:40.021Z,15.02
2023-09-21T07:18:24.569Z,14.99
2023-09-21T07:21:04.789Z,15.00
2023-09-21T07:23:44.231Z,15.00
2023-09-21T07:26:24.316Z,15.01
2023-09-21T07:29:06.475Z,15.02
2023-09-21T07:31:46.100Z,15.04
2023-09-21T07:34:31.901Z,15.06
2023-09-21T07:37:15.161Z,15.09
2023-09-21T07:39:54.512Z,15.21
2023-09-21T07:42:34.233Z,15.25
2023-09-21T07:45:15.523Z,15.29
2023-09-21T07:47:57.029Z,15.39
2023-09-21T07:50:42.205Z,15.46
2023-09-21T07:53:21.550Z,15.58
2023-09-21T07:56:07.956Z,15.70
2023-09-21T07:58:47.391Z,15.83
2023-09-21T08:01:29.003Z,15.91
2023-09-21T08:04:09.511Z,16.02
2023-09-21T08:06:55.076Z,16.09
2023-09-21T08:09:34.435Z,16.20
2023-09-21T08:12:14.360Z,16.29
2023-09-21T08:14:53.752Z,16.41
2023-09-21T08:17:33.230Z,16.49
2023-09-21T08:20:15.757Z,16.54
2023-09-21T08:23:00.153Z,16.57
2023-09-21T08:25:40.134Z,16.55
2023-09-21T08:28:19.657Z,16.52
2023-09-21T08:31:02.284Z,16.49
2023-09-21T08:33:41.714Z,16.48
2023-09-21T08:36:21.266Z,16.47
2023-09-21T08:39:07.507Z,16.50
2023-09-21T08:41:54.710Z,16.57
2023-09-21T08:44:35.400Z,16.65
2023-09-21T08:47:33.874Z,16.69
2023-09-21T08:50:16.385Z,16.74
2023-09-21T08:52:58.900Z,16.77
2023-09-21T08:55:43.309Z,16.82
2023-09-21T08:58:27.120Z,16.90
2023-09-21T09:01:07.709Z,16.95
2023-09-21T09:03:50.378Z,16.98
2023-09-21T09:06:30.319Z,17.03
2023-09-21T09:09:09.913Z,17.07
2023-09-21T09:11:54.442Z,17.17
2023-09-21T09:14:33.794Z,17.24
2023-09-21T09:17:21.423Z,17.32
2023-09-21T09:20:00.753Z,17.41
2023-09-21T09:22:41.979Z,17.49
2023-09-21T09:25:23.401Z,17.57
2023-09-21T09:28:10.384Z,17.65
2023-09-21T09:30:50.988Z,17.74
2023-09-21T09:33:33.272Z,17.91
2023-09-21T09:36:13.394Z,18.06
2023-09-21T09:38:52.760Z,18.22
2023-09-21T09:41:33.958Z,18.41
2023-09-21T09:44:23.889Z,18.65
2023-09-21T09:47:04.540Z,18.89
2023-09-21T09:49:48.426Z,19.12
2023-09-21T09:52:30.573Z,19.43
2023-09-21T09:55:15.396Z,19.77
2023-09-21T09:57:57.097Z,20.12
2023-09-21T10:00:43.528Z,20.26
2023-09-21T10:03:25.471Z,20.33
2023-09-21T10:06:06.569Z,20.38
2023-09-21T10:08:48.999Z,20.39
2023-09-21T10:11:31.062Z,20.38
2023-09-21T10:14:11.491Z,20.29
2023-09-21T10:17:03.585Z,20.16
2023-09-21T10:19:46.082Z,20.03
2023-09-21T10:22:32.416Z,19.93
2023-09-21T10:25:13.289Z,19.83
2023-09-21T10:27:53.226Z,19.69
2023-09-21T10:30:33.397Z,19.60
2023-09-21T10:33:21.008Z,19.53
2023-09-21T10:36:01.287Z,19.47
2023-09-21T10:38:41.009Z,19.43
2023-09-21T10:41:36.635Z,19.47
2023-09-21T10:44:16.546Z,19.53
2023-09-21T10:46:55.934Z,19.71
2023-09-21T10:49:42.400Z,19.94
2023-09-21T10:52:23.883Z,20.17
2023-09-21T10:55:03.432Z,20.27
2023-09-21T10:57:42.837Z,20.39
2023-09-21T11:00:24.403Z,20.52
2023-09-21T11:03:05.298Z,20.64
2023-09-21T11:05:53.106Z,20.68
2023-09-21T11:08:32.655Z,20.72
2023-09-21T11:11:14.970Z,20.78
2023-09-21T11:13:57.885Z,20.81
2023-09-21T11:16:37.657Z,20.89
2023-09-21T11:19:19.111Z,20.98
2023-09-21T11:22:04.266Z,21.08
2023-09-21T11:24:44.736Z,21.38
2023-09-21T11:27:24.075Z,21.87
2023-09-21T11:30:03.828Z,22.01
2023-09-21T11:32:49.788Z,22.00
2023-09-21T11:35:31.099Z,21.94
2023-09-21T11:38:16.994Z,21.86
2023-09-21T11:40:57.648Z,21.84
2023-09-21T11:43:37.209Z,21.82
2023-09-21T11:46:18.607Z,21.83
2023-09-21T11:48:58.329Z,21.92
2023-09-21T11:51:38.004Z,22.04
2023-09-21T11:54:22.556Z,22.08
2023-09-21T11:57:02.794Z,22.10
2023-09-21T11:59:44.658Z,22.12
2023-09-21T12:02:24.362Z,22.21
2023-09-21T12:05:05.203Z,22.48
2023-09-21T12:07:45.075Z,22.80
2023-09-21T12:10:29.491Z,22.85
2023-09-21T12:13:09.247Z,22.88
2023-09-21T12:15:49.265Z,22.93
2023-09-21T12:18:29.628Z,22.95
2023-09-21T12:21:09.793Z,22.92
2023-09-21T12:23:51.232Z,22.88
2023-09-21T12:26:37.862Z,22.86
2023-09-21T12:29:20.015Z,22.84
2023-09-21T12:32:01.225Z,22.81
2023-09-21T12:34:41.718Z,22.78
2023-09-21T12:37:21.656Z,22.76
2023-09-21T12:40:01.271Z,22.71
2023-09-21T12:42:48.174Z,22.65
2023-09-21T12:45:27.991Z,22.60
2023-09-21T12:48:10.177Z,22.55
2023-09-21T12:50:49.727Z,22.51
2023-09-21T12:53:29.093Z,22.50
2023-09-21T12:56:10.216Z,22.52
2023-09-21T12:58:54.622Z,22.64
2023-09-21T13:01:34.309Z,22.75
2023-09-21T13:04:14.387Z,22.89
2023-09-21T13:06:53.854Z,23.05
2023-09-21T13:09:50.843Z,23.21
2023-09-21T13:12:31.157Z,23.28
2023-09-21T13:15:16.960Z,23.32
2023-09-21T13:17:56.529Z,23.33
2023-09-21T13:20:35.919Z,23.32
2023-09-21T13:23:15.228Z,23.27
2023-09-21T13:25:54.950Z,23.23
2023-09-21T13:28:34.322Z,23.20
2023-09-21T13:31:21.944Z,23.19
2023-09-21T13:34:01.385Z,23.18
2023-09-21T13:36:40.811Z,23.19
2023-09-21T13:39:20.726Z,23.16
2023-09-21T13:42:01.565Z,23.17
2023-09-21T13:44:40.987Z,23.16
2023-09-21T13:47:25.411Z,23.17
2023-09-21T13:50:04.741Z,23.18
2023-09-21T13:52:44.884Z,23.24
2023-09-21T13:55:25.733Z,23.31
2023-09-21T13:58:05.361Z,23.36
2023-09-21T14:00:44.924Z,23.43
2023-09-21T14:03:31.305Z,23.52
2023-09-21T14:06:10.885Z,23.59
2023-09-21T14:08:50.410Z,23.63
2023-09-21T14:11:30.062Z,23.65
2023-09-21T14:14:09.461Z,23.64
2023-09-21T14:16:48.791Z,23.60
2023-09-21T14:19:33.330Z,23.56
2023-09-21T14:22:13.768Z,23.55
2023-09-21T14:24:53.664Z,23.54
2023-09-21T14:27:33.071Z,23.53
2023-09-21T14:30:13.975Z,23.52
2023-09-21T14:32:55.339Z,23.52
2023-09-21T14:35:40.005Z,23.52
2023-09-21T14:38:19.353Z,23.51
2023-09-21T14:40:58.828Z,23.51
2023-09-21T14:43:38.370Z,23.62
2023-09-21T14:46:18.487Z,23.75
2023-09-21T14:48:58.403Z,23.82
2023-09-21T14:51:43.015Z,23.86
2023-09-21T14:54:22.402Z,23.89
2023-09-21T14:57:01.802Z,23.91
2023-09-21T14:59:42.310Z,23.90
2023-09-21T15:02:22.666Z,23.85
2023-09-21T15:05:02.213Z,23.79
2023-09-21T15:07:50.923Z,23.67
2023-09-21T15:10:35.714Z,23.58
2023-09-21T15:13:15.777Z,23.49
2023-09-21T15:15:55.204Z,23.37
2023-09-21T15:18:34.614Z,23.23
2023-09-21T15:21:14.014Z,23.11
2023-09-21T15:24:00.234Z,22.98
2023-09-21T15:26:39.960Z,22.85
2023-09-21T15:29:19.266Z,22.76
2023-09-21T15:31:58.775Z,22.69
2023-09-21T15:34:38.203Z,22.65
2023-09-21T15:37:18.357Z,22.59
2023-09-21T15:40:02.793Z,22.56
2023-09-21T15:42:42.206Z,22.58
2023-09-21T15:45:21.721Z,22.62
2023-09-21T15:48:01.366Z,22.63
2023-09-21T15:50:40.848Z,22.65
2023-09-21T15:53:21.936Z,22.67
2023-09-21T15:56:07.047Z,22.70
2023-09-21T15:58:47.139Z,22.72
2023-09-21T16:01:26.708Z,22.73
2023-09-21T16:04:07.746Z,22.74
2023-09-21T16:06:47.143Z,22.74
2023-09-21T16:09:26.566Z,22.75
2023-09-21T16:12:11.529Z,22.75
2023-09-21T16:14:52.263Z,22.73
2023-09-21T16:17:31.843Z,22.69
2023-09-21T16:20:13.472Z,22.61
2023-09-21T16:22:53.152Z,22.52
2023-09-21T16:25:32.623Z,22.44
2023-09-21T16:28:17.248Z,22.38
2023-09-21T16:30:58.269Z,22.31
2023-09-21T16:33:37.781Z,22.22
2023-09-21T16:36:17.228Z,22.18
2023-09-21T16:38:57.004Z,22.12
2023-09-21T16:41:36.893Z,22.03
2023-09-21T16:44:21.278Z,21.96
2023-09-21T16:47:00.664Z,21.85
2023-09-21T16:49:40.020Z,21.76
2023-09-21T16:52:19.364Z,21.69
2023-09-21T16:54:58.660Z,21.59
2023-09-21T16:57:38.366Z,21.53
2023-09-21T17:00:23.851Z,21.47
2023-09-21T17:03:03.336Z,21.43
2023-09-21T17:05:42.746Z,21.40
2023-09-21T17:08:22.413Z,21.34
2023-09-21T17:11:01.765Z,21.28
2023-09-21T17:13:41.085Z,21.25
2023-09-21T17:16:25.648Z,21.21
2023-09-21T17:19:05.634Z,21.14
2023-09-21T17:21:45.238Z,21.09
2023-09-21T17:24:24.675Z,21.05
2023-09-21T17:27:04.229Z,20.99
2023-09-21T17:29:43.616Z,20.93
2023-09-21T17:32:28.228Z,20.82
2023-09-21T17:35:07.836Z,20.73
2023-09-21T17:37:47.353Z,20.65
2023-09-21T17:40:26.807Z,20.55
2023-09-21T17:43:06.613Z,20.43
2023-09-21T17:45:46.421Z,20.35
2023-09-21T17:48:32.498Z,20.29
2023-09-21T17:51:12.235Z,20.23
2023-09-21T17:53:51.591Z,20.16
2023-09-21T17:56:31.127Z,20.10
2023-09-21T17:59:10.904Z,20.08
2023-09-21T18:01:50.413Z,20.09
2023-09-21T18:04:35.625Z,20.05
2023-09-21T18:07:15.049Z,20.05
2023-09-21T18:09:54.344Z,20.07
2023-09-21T18:12:33.799Z,20.09
2023-09-21T18:15:14.850Z,20.07
2023-09-21T18:17:54.283Z,20.05
2023-09-21T18:20:39.211Z,20.05
2023-09-21T18:23:19.508Z,20.02
2023-09-21T18:25:58.780Z,19.99
2023-09-21T18:28:38.098Z,19.95
2023-09-21T18:31:18.196Z,19.93
2023-09-21T18:34:01.004Z,19.88
2023-09-21T18:36:45.572Z,19.85
2023-09-21T18:39:25.948Z,19.82
2023-09-21T18:42:05.528Z,19.80
2023-09-21T18:44:44.882Z,19.82
2023-09-21T18:47:24.305Z,19.81
2023-09-21T18:50:03.661Z,19.76
2023-09-21T18:52:48.100Z,19.75
2023-09-21T18:55:27.888Z,19.70
2023-09-21T18:58:08.175Z,19.68
2023-09-21T19:00:47.655Z,19.63
2023-09-21T19:03:27.374Z,19.64
2023-09-21T19:06:08.377Z,19.66
2023-09-21T19:08:52.821Z,19.66
2023-09-21T19:11:32.153Z,19.60
2023-09-21T19:14:13.087Z,19.48
2023-09-21T19:16:56.253Z,19.41
2023-09-21T19:19:37.544Z,19.35
2023-09-21T19:22:18.983Z,19.27
2023-09-21T19:25:03.399Z,19.20
2023-09-21T19:27:42.923Z,19.10
2023-09-21T19:30:22.826Z,18.11
2023-09-21T19:33:04.455Z,16.37
2023-09-21T19:35:44.827Z,16.19
2023-09-21T19:38:24.213Z,15.95
2023-09-21T19:41:08.768Z,15.84
2023-09-21T19:43:48.111Z,15.80
2023-09-21T19:46:27.742Z,15.79
2023-09-21T19:49:07.105Z,15.77
2023-09-21T19:51:47.413Z,15.77
2023-09-21T19:54:26.783Z,15.80
2023-09-21T19:57:11.315Z,15.83
2023-09-21T19:59:51.467Z,15.88
2023-09-21T20:02:30.807Z,15.91
2023-09-21T20:05:10.744Z,15.93
2023-09-21T20:07:50.546Z,15.93
2023-09-21T20:10:30.390Z,15.92
2023-09-21T20:13:14.821Z,15.92
2023-09-21T20:15:54.487Z,15.91
2023-09-21T20:18:33.961Z,15.93
2023-09-21T20:21:13.735Z,15.95
2023-09-21T20:23:53.264Z,15.99
2023-09-21T20:26:32.543Z,16.02
2023-09-21T20:29:17.048Z,16.04
2023-09-21T20:31:56.445Z,16.10
2023-09-21T20:34:35.921Z,16.13
2023-09-21T20:37:17.018Z,16.15
2023-09-21T20:39:57.123Z,16.19
2023-09-21T20:42:36.470Z,16.22
2023-09-21T20:45:21.848Z,16.23
2023-09-21T20:48:01.211Z,16.26
2023-09-21T20:50:40.706Z,16.30
2023-09-21T20:53:20.136Z,16.34
2023-09-21T20:56:00.114Z,16.37
2023-09-21T20:58:39.426Z,16.40
2023-09-21T21:01:23.870Z,16.41
2023-09-21T21:04:03.292Z,16.44
2023-09-21T21:06:42.741Z,16.45
2023-09-21T21:09:22.250Z,16.45
2023-09-21T21:12:01.621Z,16.45
2023-09-21T21:14:40.902Z,16.44
2023-09-21T21:17:25.461Z,16.49
2023-09-21T21:20:05.490Z,16.46
2023-09-21T21:22:44.893Z,16.44
2023-09-21T21:25:24.471Z,16.42
2023-09-21T21:28:03.880Z,16.40
2023-09-21T21:30:43.249Z,16.39
2023-09-21T21:33:27.756Z,16.38
2023-09-21T21:36:07.186Z,16.41
2023-09-21T21:38:46.477Z,16.43
2023-09-21T21:41:25.800Z,16.43
2023-09-21T21:44:05.708Z,16.43
2023-09-21T21:46:45.051Z,16.41
2023-09-21T21:49:29.993Z,16.40
2023-09-21T21:52:09.466Z,16.40
2023-09-21T21:54:48.797Z,16.42
2023-09-21T21:57:28.809Z,16.40
2023-09-21T22:00:14.834Z,16.37
2023-09-21T22:02:54.252Z,16.35
2023-09-21T22:05:39.409Z,16.34
2023-09-21T22:08:19.559Z,16.33
2023-09-21T22:11:00.221Z,16.34
2023-09-21T22:13:39.645Z,16.36
2023-09-21T22:16:19.234Z,16.37
2023-09-21T22:18:58.641Z,16.39
2023-09-21T22:21:44.571Z,16.35
2023-09-21T22:24:24.186Z,16.30
2023-09-21T22:27:04.179Z,16.26
2023-09-21T22:29:43.802Z,16.25
2023-09-21T22:32:24.851Z,16.22
2023-09-21T22:35:06.539Z,16.18
2023-09-21T22:38:00.694Z,16.14
2023-09-21T22:40:51.989Z,16.11
2023-09-21T22:43:31.302Z,16.11
2023-09-21T22:46:11.545Z,16.11
2023-09-21T22:48:52.479Z,16.12
2023-09-21T22:51:31.856Z,16.14
2023-09-21T22:54:18.412Z,16.16
2023-09-21T22:56:57.749Z,16.18
2023-09-21T22:59:37.476Z,16.20
2023-09-21T23:02:17.434Z,16.21
2023-09-21T23:05:01.186Z,16.20
2023-09-21T23:07:40.630Z,16.20
2023-09-21T23:10:28.849Z,16.15
2023-09-21T23:13:10.273Z,16.11
2023-09-21T23:15:49.605Z,16.08
2023-09-21T23:18:28.960Z,16.04
2023-09-21T23:21:13.304Z,16.02
2023-09-21T23:23:52.715Z,16.00
2023-09-21T23:26:38.612Z,15.99
2023-09-21T23:29:18.434Z,15.99
2023-09-21T23:31:57.725Z,15.97
2023-09-21T23:34:37.078Z,15.97
2023-09-21T23:37:17.544Z,16.01
2023-09-21T23:39:58.292Z,16.03
2023-09-21T23:42:44.520Z,16.01
2023-09-21T23:45:23.882Z,15.99
2023-09-21T23:48:03.277Z,15.94
2023-09-21T23:50:43.092Z,15.92
2023-09-21T23:53:24.105Z,15.90
2023-09-21T23:56:05.845Z,15.86
2023-09-21T23:58:52.864Z,15.85
